Time;durP1;ratioP1;P1;durP2;ratioP2;P2;SDS_P1;SDS_P2;PMS_P1;PMS_P2;Temp;Humidity;BMP_temperature;BMP_pressure;BME280_temperature;BME280_humidity;BME280_pressure;Samples;Min_cycle;Max_cycle;Signal;HPM_P1;HPM_P2
2023/01/05 00:01:23;;;;;;;;;;;;;;;;;;7360498;19;19915;-77
2023/01/05 00:03:48;;;;;;;;;;;;;;;;;;7364790;19;19980;-77
2023/01/05 00:06:13;;;;;;;;;;;;;;;;;;7358535;19;19958;-76
2023/01/05 00:08:38;;;;;;;;;;;;;;;;;;7357207;19;19979;-76
2023/01/05 00:24:43;;;;;;;;;;;;;;;;;;7359599;19;19948;-76
2023/01/05 00:27:08;;;;;;;;;;;;;;;;;;7360856;19;19973;-76
2023/01/05 00:29:33;;;;;;;;;;;;;;;;;;7362170;19;19925;-76
2023/01/05 00:31:58;;;;;;;;;;;;;;;;;;7369204;19;20396;-76
2023/01/05 00:34:23;;;;;;;;;;;;;;;;;;7371883;19;20193;-77
2023/01/05 00:36:48;;;;;;;;;;;;;;;;;;7367148;19;20308;-76
2023/01/05 00:39:13;;;;;;;;;;;;;;;;;;7373206;19;19915;-76
2023/01/05 00:41:39;;;;;;;;;;;;;;;;;;7368565;19;19916;-76
2023/01/05 00:44:04;;;;;;;;;;;;;;;;;;7374044;19;19915;-77
2023/01/05 00:46:29;;;;;;;;;;;;;;;;;;7366621;19;20350;-77
2023/01/05 00:48:54;;;;;;;;;;;;;;;;;;7373297;19;19918;-77
2023/01/05 00:51:19;;;;;;;;;;;;;;;;;;7371320;19;20270;-76
2023/01/05 00:53:44;;;;;;;;;;;;;;;;;;7365117;19;19915;-76
2023/01/05 00:56:09;;;;;;;;;;;;;;;;;;7370642;19;19930;-76
2023/01/05 00:58:35;;;;;;;;;;;;;;;;;;7369855;19;19911;-76
2023/01/05 01:01:00;;;;;;;;;;;;;;;;;;7370370;19;19918;-76
2023/01/05 01:03:25;;;;;;;;;;;;;;;;;;7379977;19;20019;-76
2023/01/05 01:05:50;;;;;;;;;;;;;;;;;;7353585;19;19930;-76
2023/01/05 01:08:15;;;;;;;;;;;;;;;;;;7365484;19;19939;-76
2023/01/05 01:10:40;;;;;;;;;;;;;;;;;;7369964;19;19915;-76
2023/01/05 01:13:05;;;;;;;;;;;;;;;;;;7370603;19;19978;-77
2023/01/05 01:15:30;;;;;;;;;;;;;;;;;;7367500;19;19926;-76
2023/01/05 01:17:55;;;;;;;;;;;;;;;;;;7371929;19;19923;-76
2023/01/05 01:20:20;;;;;;;;;;;;;;;;;;7369958;19;19960;-76
2023/01/05 01:22:46;;;;;;;;;;;;;;;;;;7366925;19;19911;-76
2023/01/05 01:25:11;;;;;;;;;;;;;;;;;;7370910;19;19933;-76
2023/01/05 01:27:36;;;;;;;;;;;;;;;;;;7364406;19;19911;-76
2023/01/05 01:30:01;;;;;;;;;;;;;;;;;;7372120;19;20323;-76
2023/01/05 01:32:26;;;;;;;;;;;;;;;;;;7365211;19;19919;-76
2023/01/05 01:34:51;;;;;;;;;;;;;;;;;;7370828;19;19954;-76
2023/01/05 01:37:16;;;;;;;;;;;;;;;;;;7331063;19;19929;-77
2023/01/05 01:39:41;;;;;;;;;;;;;;;;;;7364896;19;19919;-77
2023/01/05 01:42:07;;;;;;;;;;;;;;;;;;7367651;19;19935;-77
2023/01/05 01:44:32;;;;;;;;;;;;;;;;;;7370144;19;19978;-77
2023/01/05 01:46:58;;;;;;;;;;;;;;;;;;7365623;19;20340;-77
2023/01/05 01:49:23;;;;;;;;;;;;;;;;;;7372293;19;19922;-77
2023/01/05 01:51:48;;;;;;;;;;;;;;;;;;7360757;19;20240;-77
2023/01/05 01:54:13;;;;;;;;;;;;;;;;;;7368132;19;20174;-77
2023/01/05 01:56:38;;;;;;;;;;;;;;;;;;7368266;19;20219;-77
2023/01/05 01:59:03;;;;;;;;;;;;;;;;;;7369436;19;20274;-76
2023/01/05 02:01:28;;;;;;;;;;;;;;;;;;7364067;19;19969;-77
2023/01/05 02:03:54;;;;;;;;;;;;;;;;;;7367872;19;19923;-76
2023/01/05 02:06:19;;;;;;;;;;;;;;;;;;7357010;19;19927;-76
2023/01/05 02:08:44;;;;;;;;;;;;;;;;;;7364002;19;19942;-76
2023/01/05 02:11:09;;;;;;;;;;;;;;;;;;7362255;19;20248;-76
2023/01/05 02:13:34;;;;;;;;;;;;;;;;;;7367684;19;19914;-76
2023/01/05 02:15:59;;;;;;;;;;;;;;;;;;7370080;19;20231;-75
2023/01/05 02:18:24;;;;;;;;;;;;;;;;;;7369522;19;20293;-76
2023/01/05 02:20:49;;;;;;;;;;;;;;;;;;7355792;19;19943;-75
2023/01/05 02:23:14;;;;;;;;;;;;;;;;;;7367358;19;19922;-75
2023/01/05 02:25:39;;;;;;;;;;;;;;;;;;7366844;19;19953;-76
2023/01/05 02:28:05;;;;;;;;;;;;;;;;;;7370149;19;20392;-75
2023/01/05 02:30:31;;;;;;;;;;;;;;;;;;7362107;19;19925;-76
2023/01/05 02:32:56;;;;;;;;;;;;;;;;;;7361699;19;19918;-76
2023/01/05 02:35:21;;;;;;;;;;;;;;;;;;7370403;19;19954;-76
2023/01/05 02:37:46;;;;;;;;;;;;;;;;;;7277383;19;20189;-76
2023/01/05 02:40:11;;;;;;;;;;;;;;;;;;7275764;19;20449;-76
2023/01/05 02:42:36;;;;;;;;;;;;;;;;;;7265193;19;19918;-76
2023/01/05 02:45:01;;;;;;;;;;;;;;;;;;7277910;19;20326;-76
2023/01/05 02:47:27;;;;;;;;;;;;;;;;;;7269046;19;20293;-76
2023/01/05 02:49:52;;;;;;;;;;;;;;;;;;7271947;19;19975;-76
2023/01/05 02:52:17;;;;;;;;;;;;;;;;;;7264106;19;19931;-76
2023/01/05 02:54:42;;;;;;;;;;;;;;;;;;7270204;19;20297;-75
2023/01/05 02:57:07;;;;;;;;;;;;;;;;;;7264471;19;20266;-75
2023/01/05 02:59:32;;;;;;;;;;;;;;;;;;7272882;19;19929;-75
2023/01/05 03:01:57;;;;;;;;;;;;;;;;;;7273834;19;20212;-76
2023/01/05 03:04:22;;;;;;;;;;;;;;;;;;7274246;19;20322;-76
2023/01/05 03:06:48;;;;;;;;;;;;;;;;;;7262518;19;20542;-75
2023/01/05 03:09:13;;;;;;;;;;;;;;;;;;7271903;19;20511;-76
2023/01/05 03:14:22;;;;;;;;;;;;;;;;;;7270109;19;19946;-75
2023/01/05 03:16:47;;;;;;;;;;;;;;;;;;7273687;19;20321;-75
2023/01/05 03:35:38;;;;;;;;;;;;;;;;;;7273372;19;20167;-75
2023/01/05 03:38:03;;;;;;;;;;;;;;;;;;7346517;19;19927;-76
2023/01/05 03:40:29;;;;;;;;;;;;;;;;;;7364947;19;19974;-76
2023/01/05 03:42:54;;;;;;;;;;;;;;;;;;7361805;19;20010;-76
2023/01/05 03:45:19;;;;;;;;;;;;;;;;;;7367273;19;19943;-76
2023/01/05 03:47:44;;;;;;;;;;;;;;;;;;7354081;19;20020;-75
2023/01/05 03:50:10;;;;;;;;;;;;;;;;;;7365602;19;19915;-76
2023/01/05 03:52:35;;;;;;;;;;;;;;;;;;7360951;19;19918;-76
2023/01/05 03:55:00;;;;;;;;;;;;;;;;;;7359992;19;19915;-76
2023/01/05 03:57:25;;;;;;;;;;;;;;;;;;7366074;19;19932;-76
2023/01/05 03:59:50;;;;;;;;;;;;;;;;;;7361415;19;19933;-75
2023/01/05 04:02:15;;;;;;;;;;;;;;;;;;7363855;19;19950;-77
2023/01/05 04:04:40;;;;;;;;;;;;;;;;;;7364993;19;19923;-76
2023/01/05 04:07:06;;;;;;;;;;;;;;;;;;7368643;19;20241;-76
2023/01/05 04:09:32;;;;;;;;;;;;;;;;;;7369077;19;19918;-76
2023/01/05 04:11:57;;;;;;;;;;;;;;;;;;7369556;19;19934;-76
2023/01/05 04:14:22;;;;;;;;;;;;;;;;;;7368405;19;19915;-76
2023/01/05 04:16:48;;;;;;;;;;;;;;;;;;7367842;19;19923;-76
2023/01/05 04:19:13;;;;;;;;;;;;;;;;;;7367745;19;19949;-75
2023/01/05 04:21:38;;;;;;;;;;;;;;;;;;7367458;19;19954;-77
2023/01/05 04:24:03;;;;;;;;;;;;;;;;;;7370617;19;19926;-77
2023/01/05 04:26:28;;;;;;;;;;;;;;;;;;7371718;19;19986;-75
2023/01/05 04:28:53;;;;;;;;;;;;;;;;;;7369517;19;20592;-76
2023/01/05 04:31:18;;;;;;;;;;;;;;;;;;7369031;19;20003;-77
2023/01/05 04:33:44;;;;;;;;;;;;;;;;;;7369701;19;20393;-75
2023/01/05 04:36:09;;;;;;;;;;;;;;;;;;7370330;19;19926;-75
2023/01/05 04:38:34;;;;;;;;;;;;;;;;;;7366383;19;20252;-75
2023/01/05 04:40:59;;;;;;;;;;;;;;;;;;7342234;19;20090;-76
2023/01/05 04:43:24;;;;;;;;;;;;;;;;;;7367273;19;19923;-76
2023/01/05 04:45:49;;;;;;;;;;;;;;;;;;7368733;19;19979;-75
2023/01/05 04:48:15;;;;;;;;;;;;;;;;;;7372830;19;19915;-75
2023/01/05 04:50:40;;;;;;;;;;;;;;;;;;7350985;19;19954;-76
2023/01/05 04:53:05;;;;;;;;;;;;;;;;;;7364910;19;19955;-76
2023/01/05 04:55:30;;;;;;;;;;;;;;;;;;7365583;19;20286;-75
2023/01/05 04:57:55;;;;;;;;;;;;;;;;;;7357821;19;19970;-76
2023/01/05 05:00:20;;;;;;;;;;;;;;;;;;7361988;19;19942;-76
2023/01/05 05:02:45;;;;;;;;;;;;;;;;;;7358497;19;20001;-77
2023/01/05 05:05:10;;;;;;;;;;;;;;;;;;7357146;19;19922;-75
2023/01/05 05:07:35;;;;;;;;;;;;;;;;;;7356206;19;19924;-78
2023/01/05 05:10:01;;;;;;;;;;;;;;;;;;7361247;19;19915;-78
2023/01/05 05:12:26;;;;;;;;;;;;;;;;;;7361972;19;19948;-77
2023/01/05 05:14:51;;;;;;;;;;;;;;;;;;7358987;19;19919;-77
2023/01/05 05:17:16;;;;;;;;;;;;;;;;;;7335904;19;19941;-77
2023/01/05 05:19:41;;;;;;;;;;;;;;;;;;7365941;19;19922;-77
2023/01/05 05:22:06;;;;;;;;;;;;;;;;;;7364746;19;19923;-77
2023/01/05 05:24:31;;;;;;;;;;;;;;;;;;7357745;19;19980;-78
2023/01/05 05:26:56;;;;;;;;;;;;;;;;;;7360962;19;20312;-77
2023/01/05 05:29:22;;;;;;;;;;;;;;;;;;7367338;19;19957;-77
2023/01/05 05:31:47;;;;;;;;;;;;;;;;;;7358822;19;19978;-77
2023/01/05 05:34:12;;;;;;;;;;;;;;;;;;7364772;19;19938;-77
2023/01/05 05:36:37;;;;;;;;;;;;;;;;;;7359106;19;19972;-77
2023/01/05 05:39:02;;;;;;;;;;;;;;;;;;7364633;19;19939;-77
2023/01/05 05:41:27;;;;;;;;;;;;;;;;;;7368704;19;19930;-77
2023/01/05 05:43:52;;;;;;;;;;;;;;;;;;7360646;19;19915;-77
2023/01/05 05:46:17;;;;;;;;;;;;;;;;;;7366585;19;20376;-77
2023/01/05 05:48:43;;;;;;;;;;;;;;;;;;7359152;19;20035;-77
2023/01/05 05:51:08;;;;;;;;;;;;;;;;;;7362503;19;20327;-77
2023/01/05 05:53:33;;;;;;;;;;;;;;;;;;7360087;19;19923;-77
2023/01/05 05:55:58;;;;;;;;;;;;;;;;;;7367863;19;20475;-76
2023/01/05 05:58:23;;;;;;;;;;;;;;;;;;7370440;19;19914;-75
2023/01/05 06:00:48;;;;;;;;;;;;;;;;;;7367951;19;19929;-77
2023/01/05 06:03:13;;;;;;;;;;;;;;;;;;7361541;19;19948;-77
2023/01/05 06:05:39;;;;;;;;;;;;;;;;;;7365246;19;20370;-78
2023/01/05 06:08:04;;;;;;;;;;;;;;;;;;7370098;19;20606;-77
2023/01/05 06:10:29;;;;;;;;;;;;;;;;;;7364922;19;19993;-77
2023/01/05 06:12:54;;;;;;;;;;;;;;;;;;7362825;19;19922;-77
2023/01/05 06:15:19;;;;;;;;;;;;;;;;;;7367434;19;19942;-77
2023/01/05 06:17:44;;;;;;;;;;;;;;;;;;7367710;19;19915;-77
2023/01/05 06:20:10;;;;;;;;;;;;;;;;;;7359887;19;19931;-77
2023/01/05 06:22:35;;;;;;;;;;;;;;;;;;7365412;19;19938;-77
2023/01/05 06:25:01;;;;;;;;;;;;;;;;;;7369622;19;19923;-77
2023/01/05 06:27:26;;;;;;;;;;;;;;;;;;7358816;19;19919;-77
2023/01/05 06:29:51;;;;;;;;;;;;;;;;;;7365077;19;19979;-77
2023/01/05 06:32:16;;;;;;;;;;;;;;;;;;7348725;19;19919;-77
2023/01/05 06:34:41;;;;;;;;;;;;;;;;;;7362184;19;20346;-78
2023/01/05 06:37:07;;;;;;;;;;;;;;;;;;7359166;19;19926;-77
2023/01/05 06:39:32;;;;;;;;;;;;;;;;;;7364076;19;19922;-77
2023/01/05 06:41:57;;;;;;;;;;;;;;;;;;7363338;19;19922;-79
2023/01/05 06:44:22;;;;;;;;;;;;;;;;;;7361539;19;19937;-79
2023/01/05 06:46:47;;;;;;;;;;;;;;;;;;7364377;19;19926;-79
2023/01/05 06:49:13;;;;;;;;;;;;;;;;;;7362882;19;19975;-78
2023/01/05 06:51:39;;;;;;;;;;;;;;;;;;7365380;19;19915;-78
2023/01/05 06:54:04;;;;;;;;;;;;;;;;;;7362277;19;19933;-77
2023/01/05 06:56:29;;;;;;;;;;;;;;;;;;7367479;19;19975;-78
2023/01/05 06:58:54;;;;;;;;;;;;;;;;;;7343035;19;20293;-78
2023/01/05 07:01:19;;;;;;;;;;;;;;;;;;7366488;19;19918;-77
2023/01/05 07:03:44;;;;;;;;;;;;;;;;;;7369889;19;20333;-78
2023/01/05 07:06:09;;;;;;;;;;;;;;;;;;7366161;19;20301;-78
2023/01/05 07:08:35;;;;;;;;;;;;;;;;;;7370474;19;19971;-78
2023/01/05 07:11:00;;;;;;;;;;;;;;;;;;7363592;19;19946;-78
2023/01/05 07:13:25;;;;;;;;;;;;;;;;;;7368188;19;20260;-78
2023/01/05 07:15:50;;;;;;;;;;;;;;;;;;7367087;19;19919;-78
2023/01/05 07:18:15;;;;;;;;;;;;;;;;;;7370407;19;19915;-77
2023/01/05 07:20:40;;;;;;;;;;;;;;;;;;7363957;19;19934;-78
2023/01/05 07:23:05;;;;;;;;;;;;;;;;;;7366194;19;19923;-77
2023/01/05 07:25:32;;;;;;;;;;;;;;;;;;7359126;19;19929;-78
2023/01/05 07:27:57;;;;;;;;;;;;;;;;;;7354157;19;19924;-78
2023/01/05 07:30:22;;;;;;;;;;;;;;;;;;7354597;19;20387;-79
2023/01/05 07:32:47;;;;;;;;;;;;;;;;;;7354991;19;20263;-80
2023/01/05 07:35:12;;;;;;;;;;;;;;;;;;7362000;19;20221;-79
2023/01/05 07:37:37;;;;;;;;;;;;;;;;;;7365777;19;19911;-80
2023/01/05 07:40:02;;;;;;;;;;;;;;;;;;7362536;19;20300;-79
2023/01/05 07:42:29;;;;;;;;;;;;;;;;;;7367552;19;20032;-79
2023/01/05 07:44:54;;;;;;;;;;;;;;;;;;7365459;19;19923;-79
2023/01/05 07:47:19;;;;;;;;;;;;;;;;;;7370368;19;19919;-79
2023/01/05 07:49:45;;;;;;;;;;;;;;;;;;7365398;19;19915;-79
2023/01/05 07:52:10;;;;;;;;;;;;;;;;;;7362664;19;20262;-79
2023/01/05 07:54:35;;;;;;;;;;;;;;;;;;7367998;19;19919;-80
2023/01/05 07:57:00;;;;;;;;;;;;;;;;;;7366510;19;19922;-79
2023/01/05 07:59:26;;;;;;;;;;;;;;;;;;7368739;19;20035;-78
2023/01/05 08:01:51;;;;;;;;;;;;;;;;;;7360386;19;19927;-79
2023/01/05 08:04:16;;;;;;;;;;;;;;;;;;7368675;19;20025;-80
2023/01/05 08:06:41;;;;;;;;;;;;;;;;;;7367666;19;19967;-80
2023/01/05 08:11:50;;;;;;;;;;;;;;;;;;7364805;19;20037;-79
2023/01/05 08:14:15;;;;;;;;;;;;;;;;;;7366833;19;20011;-79
2023/01/05 08:16:41;;;;;;;;;;;;;;;;;;7368289;19;19982;-79
2023/01/05 08:19:06;;;;;;;;;;;;;;;;;;7364607;19;19950;-80
2023/01/05 08:21:32;;;;;;;;;;;;;;;;;;7364762;19;19935;-80
2023/01/05 08:23:58;;;;;;;;;;;;;;;;;;7365888;19;19919;-80
2023/01/05 08:26:23;;;;;;;;;;;;;;;;;;7364588;19;20245;-79
2023/01/05 08:28:48;;;;;;;;;;;;;;;;;;7365703;19;19923;-79
2023/01/05 08:31:14;;;;;;;;;;;;;;;;;;7364815;19;19923;-81
2023/01/05 08:33:39;;;;;;;;;;;;;;;;;;7369772;19;19919;-79
2023/01/05 08:36:04;;;;;;;;;;;;;;;;;;7363544;19;20571;-80
2023/01/05 08:38:29;;;;;;;;;;;;;;;;;;7365758;19;20339;-80
2023/01/05 08:40:54;;;;;;;;;;;;;;;;;;7364771;19;19980;-79
2023/01/05 08:43:19;;;;;;;;;;;;;;;;;;7368600;19;20368;-81
2023/01/05 08:45:44;;;;;;;;;;;;;;;;;;7363647;19;19910;-80
2023/01/05 08:48:09;;;;;;;;;;;;;;;;;;7362968;19;20006;-80
2023/01/05 08:50:37;;;;;;;;;;;;;;;;;;7368414;19;19935;-80
2023/01/05 08:53:02;;;;;;;;;;;;;;;;;;7368523;19;19943;-79
2023/01/05 08:55:27;;;;;;;;;;;;;;;;;;7371099;19;19946;-80
2023/01/05 08:57:52;;;;;;;;;;;;;;;;;;7371720;19;20015;-79
2023/01/05 09:00:20;;;;;;;;;;;;;;;;;;7370082;19;20607;-79
2023/01/05 09:02:45;;;;;;;;;;;;;;;;;;7369130;19;19923;-79
2023/01/05 09:05:10;;;;;;;;;;;;;;;;;;7369083;19;19918;-80
2023/01/05 09:07:36;;;;;;;;;;;;;;;;;;7353759;19;20349;-80
2023/01/05 09:10:01;;;;;;;;;;;;;;;;;;7370059;19;19934;-79
2023/01/05 09:12:26;;;;;;;;;;;;;;;;;;7373384;19;20463;-80
2023/01/05 09:14:53;;;;;;;;;;;;;;;;;;7374400;19;19915;-80
2023/01/05 09:17:18;;;;;;;;;;;;;;;;;;7371125;19;20239;-80
2023/01/05 09:19:43;;;;;;;;;;;;;;;;;;7369567;19;20333;-80
2023/01/05 09:22:08;;;;;;;;;;;;;;;;;;7368194;19;20470;-80
2023/01/05 09:24:33;;;;;;;;;;;;;;;;;;7374906;19;20029;-79
2023/01/05 09:26:58;;;;;;;;;;;;;;;;;;7369722;19;20428;-80
2023/01/05 09:29:24;;;;;;;;;;;;;;;;;;7374735;19;19922;-80
2023/01/05 09:31:49;;;;;;;;;;;;;;;;;;7370634;19;19922;-80
2023/01/05 09:34:14;;;;;;;;;;;;;;;;;;7371075;19;19919;-80
2023/01/05 09:36:39;;;;;;;;;;;;;;;;;;7363898;19;20193;-80
2023/01/05 09:39:05;;;;;;;;;;;;;;;;;;7367997;19;19939;-80
2023/01/05 09:41:30;;;;;;;;;;;;;;;;;;7369645;19;20234;-80
2023/01/05 09:43:55;;;;;;;;;;;;;;;;;;7367341;19;20019;-80
2023/01/05 09:46:20;;;;;;;;;;;;;;;;;;7370423;19;19956;-79
2023/01/05 09:48:45;;;;;;;;;;;;;;;;;;7362489;19;20340;-80
2023/01/05 09:51:10;;;;;;;;;;;;;;;;;;7366661;19;20174;-79
2023/01/05 09:53:35;;;;;;;;;;;;;;;;;;7354051;19;19927;-79
2023/01/05 09:56:00;;;;;;;;;;;;;;;;;;7367808;19;20544;-80
2023/01/05 09:58:26;;;;;;;;;;;;;;;;;;7371646;19;19983;-79
2023/01/05 10:00:51;;;;;;;;;;;;;;;;;;7373387;19;20253;-80
2023/01/05 10:03:16;;;;;;;;;;;;;;;;;;7368622;19;20006;-79
2023/01/05 10:05:41;;;;;;;;;;;;;;;;;;7366064;19;19919;-80
2023/01/05 10:08:07;;;;;;;;;;;;;;;;;;7367112;19;20339;-80
2023/01/05 10:10:32;;;;;;;;;;;;;;;;;;7371589;19;19915;-79
2023/01/05 10:13:04;;;;;;;;;;;;;;;;;;7369914;19;19922;-80
2023/01/05 10:15:29;;;;;;;;;;;;;;;;;;7369997;19;20007;-80
2023/01/05 10:17:54;;;;;;;;;;;;;;;;;;7368244;19;20358;-78
2023/01/05 10:20:19;;;;;;;;;;;;;;;;;;7371019;19;19919;-80
2023/01/05 10:22:44;;;;;;;;;;;;;;;;;;7369782;19;19945;-80
2023/01/05 10:25:10;;;;;;;;;;;;;;;;;;7365833;19;20728;-79
2023/01/05 10:27:35;;;;;;;;;;;;;;;;;;7372077;19;20015;-80
2023/01/05 10:30:00;;;;;;;;;;;;;;;;;;7370699;19;20019;-79
2023/01/05 10:32:25;;;;;;;;;;;;;;;;;;7371631;19;20030;-79
2023/01/05 10:34:50;;;;;;;;;;;;;;;;;;7372102;19;19934;-81
2023/01/05 10:37:15;;;;;;;;;;;;;;;;;;7364991;19;20038;-79
2023/01/05 10:39:40;;;;;;;;;;;;;;;;;;7354578;19;20116;-79
2023/01/05 10:42:05;;;;;;;;;;;;;;;;;;7365811;19;19927;-79
2023/01/05 10:44:30;;;;;;;;;;;;;;;;;;7373747;19;19964;-79
2023/01/05 10:46:56;;;;;;;;;;;;;;;;;;7364221;19;19935;-79
2023/01/05 10:49:21;;;;;;;;;;;;;;;;;;7371327;19;19919;-79
2023/01/05 10:51:46;;;;;;;;;;;;;;;;;;7368836;19;20305;-80
2023/01/05 10:54:11;;;;;;;;;;;;;;;;;;7368801;19;20309;-79
2023/01/05 10:56:36;;;;;;;;;;;;;;;;;;7370161;19;19930;-80
2023/01/05 10:59:01;;;;;;;;;;;;;;;;;;7366977;19;19974;-79
2023/01/05 11:01:26;;;;;;;;;;;;;;;;;;7368815;19;20115;-80
2023/01/05 11:03:51;;;;;;;;;;;;;;;;;;7370983;19;20247;-79
2023/01/05 11:06:16;;;;;;;;;;;;;;;;;;7364334;19;19971;-79
2023/01/05 11:08:42;;;;;;;;;;;;;;;;;;7370341;19;19919;-79
2023/01/05 11:11:07;;;;;;;;;;;;;;;;;;7365155;19;19992;-80
2023/01/05 11:13:32;;;;;;;;;;;;;;;;;;7368772;19;19918;-80
2023/01/05 11:15:57;;;;;;;;;;;;;;;;;;7363790;19;20280;-78
2023/01/05 11:18:22;;;;;;;;;;;;;;;;;;7369254;19;20131;-80
2023/01/05 11:20:47;;;;;;;;;;;;;;;;;;7365530;19;20014;-79
2023/01/05 11:23:13;;;;;;;;;;;;;;;;;;7367808;19;19982;-79
2023/01/05 11:25:38;;;;;;;;;;;;;;;;;;7369819;19;19978;-78
2023/01/05 11:28:03;;;;;;;;;;;;;;;;;;7366020;19;19943;-79
2023/01/05 11:30:28;;;;;;;;;;;;;;;;;;7369703;19;19925;-79
2023/01/05 11:32:53;;;;;;;;;;;;;;;;;;7370863;19;19942;-79
2023/01/05 11:35:19;;;;;;;;;;;;;;;;;;7367075;19;19926;-80
2023/01/05 11:37:44;;;;;;;;;;;;;;;;;;7365256;19;19911;-80
2023/01/05 11:40:09;;;;;;;;;;;;;;;;;;7364340;19;20008;-80
2023/01/05 11:42:41;;;;;;;;;;;;;;;;;;7366352;19;19975;-79
2023/01/05 11:45:06;;;;;;;;;;;;;;;;;;7366300;19;20059;-79
2023/01/05 11:47:31;;;;;;;;;;;;;;;;;;7369858;19;20015;-79
2023/01/05 11:49:56;;;;;;;;;;;;;;;;;;7369458;19;19922;-79
2023/01/05 11:52:21;;;;;;;;;;;;;;;;;;7364384;19;19936;-80
2023/01/05 11:54:47;;;;;;;;;;;;;;;;;;7361119;19;19927;-79
2023/01/05 11:57:12;;;;;;;;;;;;;;;;;;7354813;19;19926;-79
2023/01/05 11:59:37;;;;;;;;;;;;;;;;;;7367205;19;20245;-79
2023/01/05 12:02:02;;;;;;;;;;;;;;;;;;7347238;19;19968;-80
2023/01/05 12:04:27;;;;;;;;;;;;;;;;;;7361862;19;19927;-80
2023/01/05 12:06:52;;;;;;;;;;;;;;;;;;7361385;19;19919;-80
2023/01/05 12:09:17;;;;;;;;;;;;;;;;;;7360720;19;19919;-79
2023/01/05 12:11:42;;;;;;;;;;;;;;;;;;7367061;19;19945;-80
2023/01/05 12:14:08;;;;;;;;;;;;;;;;;;7364676;19;19928;-80
2023/01/05 12:16:33;;;;;;;;;;;;;;;;;;7357561;19;20118;-78
2023/01/05 12:18:58;;;;;;;;;;;;;;;;;;7352808;19;19988;-80
2023/01/05 12:21:23;;;;;;;;;;;;;;;;;;7360543;19;19938;-80
2023/01/05 12:23:49;;;;;;;;;;;;;;;;;;7367401;19;19975;-80
2023/01/05 12:26:14;;;;;;;;;;;;;;;;;;7362718;19;19923;-80
2023/01/05 12:28:39;;;;;;;;;;;;;;;;;;7341915;19;19915;-79
2023/01/05 12:31:04;;;;;;;;;;;;;;;;;;7371625;19;19993;-79
2023/01/05 12:33:29;;;;;;;;;;;;;;;;;;7369855;19;19915;-80
2023/01/05 12:35:54;;;;;;;;;;;;;;;;;;7370906;19;20360;-79
2023/01/05 12:38:19;;;;;;;;;;;;;;;;;;7371219;19;19919;-79
2023/01/05 12:40:44;;;;;;;;;;;;;;;;;;7369422;19;19987;-80
2023/01/05 12:43:09;;;;;;;;;;;;;;;;;;7362045;19;20310;-79
2023/01/05 12:45:35;;;;;;;;;;;;;;;;;;7373179;19;20027;-80
2023/01/05 12:48:01;;;;;;;;;;;;;;;;;;7366065;19;20244;-78
2023/01/05 12:50:26;;;;;;;;;;;;;;;;;;7363028;19;19922;-79
2023/01/05 12:52:51;;;;;;;;;;;;;;;;;;7363339;19;19919;-79
2023/01/05 12:55:16;;;;;;;;;;;;;;;;;;7366721;19;19921;-80
2023/01/05 12:57:44;;;;;;;;;;;;;;;;;;7369452;19;19939;-79
2023/01/05 13:00:10;;;;;;;;;;;;;;;;;;7363656;19;19915;-79
2023/01/05 13:02:37;;;;;;;;;;;;;;;;;;7368381;19;19945;-80
2023/01/05 13:05:03;;;;;;;;;;;;;;;;;;7363357;19;19951;-79
2023/01/05 13:07:28;;;;;;;;;;;;;;;;;;7353113;19;20190;-79
2023/01/05 13:09:53;;;;;;;;;;;;;;;;;;7350555;19;19998;-80
2023/01/05 13:12:18;;;;;;;;;;;;;;;;;;7369374;19;19942;-81
2023/01/05 13:14:44;;;;;;;;;;;;;;;;;;7367173;19;20311;-82
2023/01/05 13:17:09;;;;;;;;;;;;;;;;;;7366036;19;19930;-81
2023/01/05 13:19:34;;;;;;;;;;;;;;;;;;7373318;19;20289;-82
2023/01/05 13:21:59;;;;;;;;;;;;;;;;;;7370877;19;19972;-82
2023/01/05 13:24:26;;;;;;;;;;;;;;;;;;7367478;19;19918;-81
2023/01/05 13:26:51;;;;;;;;;;;;;;;;;;7366790;19;19990;-81
2023/01/05 13:29:17;;;;;;;;;;;;;;;;;;7373480;19;19939;-82
2023/01/05 13:31:42;;;;;;;;;;;;;;;;;;7372583;19;20333;-82
2023/01/05 13:34:07;;;;;;;;;;;;;;;;;;7373453;19;19918;-80
2023/01/05 13:36:32;;;;;;;;;;;;;;;;;;7335783;19;19915;-80
2023/01/05 13:38:57;;;;;;;;;;;;;;;;;;7367670;19;20467;-80
2023/01/05 13:41:22;;;;;;;;;;;;;;;;;;7367029;19;19927;-81
2023/01/05 13:43:47;;;;;;;;;;;;;;;;;;7376009;19;19925;-82
2023/01/05 13:46:12;;;;;;;;;;;;;;;;;;7370305;19;20209;-82
2023/01/05 13:48:37;;;;;;;;;;;;;;;;;;7375905;19;19914;-82
2023/01/05 13:51:03;;;;;;;;;;;;;;;;;;7364069;19;19942;-82
2023/01/05 13:53:28;;;;;;;;;;;;;;;;;;7370373;19;19911;-81
2023/01/05 13:55:54;;;;;;;;;;;;;;;;;;7367419;19;19960;-82
2023/01/05 13:58:19;;;;;;;;;;;;;;;;;;7372157;19;19938;-82
2023/01/05 14:00:44;;;;;;;;;;;;;;;;;;7371731;19;19956;-81
2023/01/05 14:03:09;;;;;;;;;;;;;;;;;;7366617;19;19911;-82
2023/01/05 14:05:34;;;;;;;;;;;;;;;;;;7371778;19;19923;-82
2023/01/05 14:07:59;;;;;;;;;;;;;;;;;;7363750;19;19921;-81
2023/01/05 14:10:24;;;;;;;;;;;;;;;;;;7363063;19;20468;-81
2023/01/05 14:12:49;;;;;;;;;;;;;;;;;;7373552;19;19938;-82
2023/01/05 14:15:15;;;;;;;;;;;;;;;;;;7374927;19;20577;-82
2023/01/05 14:17:40;;;;;;;;;;;;;;;;;;7368106;19;19923;-81
2023/01/05 14:20:05;;;;;;;;;;;;;;;;;;7369803;19;20119;-82
2023/01/05 14:22:30;;;;;;;;;;;;;;;;;;7364999;19;20002;-81
2023/01/05 14:24:56;;;;;;;;;;;;;;;;;;7372400;19;19918;-82
2023/01/05 14:27:21;;;;;;;;;;;;;;;;;;7360678;19;19915;-82
2023/01/05 14:29:46;;;;;;;;;;;;;;;;;;7371595;19;19922;-82
2023/01/05 14:32:11;;;;;;;;;;;;;;;;;;7369388;19;19942;-82
2023/01/05 14:34:36;;;;;;;;;;;;;;;;;;7366068;19;20459;-81
2023/01/05 14:37:02;;;;;;;;;;;;;;;;;;7362576;19;19914;-81
2023/01/05 14:39:27;;;;;;;;;;;;;;;;;;7356670;19;20005;-81
2023/01/05 14:41:52;;;;;;;;;;;;;;;;;;7366952;19;20284;-82
2023/01/05 14:44:17;;;;;;;;;;;;;;;;;;7371489;19;19926;-82
2023/01/05 14:46:42;;;;;;;;;;;;;;;;;;7372423;19;20711;-82
2023/01/05 14:49:07;;;;;;;;;;;;;;;;;;7369062;19;19943;-81
2023/01/05 14:51:32;;;;;;;;;;;;;;;;;;7362493;19;20152;-81
2023/01/05 14:53:58;;;;;;;;;;;;;;;;;;7373306;19;19936;-81
2023/01/05 14:56:23;;;;;;;;;;;;;;;;;;7368484;19;19927;-81
2023/01/05 14:58:48;;;;;;;;;;;;;;;;;;7370672;19;19942;-82
2023/01/05 15:01:14;;;;;;;;;;;;;;;;;;7362488;19;20313;-81
2023/01/05 15:03:39;;;;;;;;;;;;;;;;;;7365391;19;20348;-80
2023/01/05 15:06:04;;;;;;;;;;;;;;;;;;7353153;19;20432;-80
2023/01/05 15:08:29;;;;;;;;;;;;;;;;;;7358761;19;19976;-79
2023/01/05 15:10:54;;;;;;;;;;;;;;;;;;7370410;19;19922;-79
2023/01/05 15:13:19;;;;;;;;;;;;;;;;;;7366046;19;19978;-80
2023/01/05 15:15:44;;;;;;;;;;;;;;;;;;7370426;19;20317;-80
2023/01/05 15:18:09;;;;;;;;;;;;;;;;;;7354585;19;19939;-79
2023/01/05 15:20:35;;;;;;;;;;;;;;;;;;7366448;19;20396;-80
2023/01/05 15:23:00;;;;;;;;;;;;;;;;;;7364839;19;19943;-80
2023/01/05 15:25:25;;;;;;;;;;;;;;;;;;7369360;19;19968;-80
2023/01/05 15:27:51;;;;;;;;;;;;;;;;;;7371680;19;19941;-80
2023/01/05 15:30:16;;;;;;;;;;;;;;;;;;7357966;19;19911;-79
2023/01/05 15:32:41;;;;;;;;;;;;;;;;;;7368800;19;19926;-80
2023/01/05 15:35:06;;;;;;;;;;;;;;;;;;7370305;19;20555;-80
2023/01/05 15:37:31;;;;;;;;;;;;;;;;;;7354218;19;19951;-80
2023/01/05 15:39:56;;;;;;;;;;;;;;;;;;7371311;19;19991;-80
2023/01/05 15:42:21;;;;;;;;;;;;;;;;;;7365828;19;19926;-80
2023/01/05 15:44:47;;;;;;;;;;;;;;;;;;7349991;19;19918;-80
2023/01/05 15:47:12;;;;;;;;;;;;;;;;;;7362133;19;20305;-81
2023/01/05 15:49:38;;;;;;;;;;;;;;;;;;7362033;19;19933;-80
2023/01/05 15:52:03;;;;;;;;;;;;;;;;;;7360591;19;19940;-78
2023/01/05 15:54:28;;;;;;;;;;;;;;;;;;7365449;19;19926;-80
2023/01/05 15:56:54;;;;;;;;;;;;;;;;;;7370078;19;19918;-79
2023/01/05 15:59:19;;;;;;;;;;;;;;;;;;7365437;19;20015;-79
2023/01/05 16:01:44;;;;;;;;;;;;;;;;;;7350576;19;20333;-79
2023/01/05 16:04:09;;;;;;;;;;;;;;;;;;7366651;19;20010;-80
2023/01/05 16:06:38;;;;;;;;;;;;;;;;;;7363145;19;20653;-80
2023/01/05 16:09:03;;;;;;;;;;;;;;;;;;7368750;19;20346;-80
2023/01/05 16:11:28;;;;;;;;;;;;;;;;;;7364070;19;19911;-80
2023/01/05 16:13:53;;;;;;;;;;;;;;;;;;7370066;19;19994;-79
2023/01/05 16:16:18;;;;;;;;;;;;;;;;;;7360645;19;20258;-79
2023/01/05 16:18:43;;;;;;;;;;;;;;;;;;7369501;19;19963;-80
2023/01/05 16:21:08;;;;;;;;;;;;;;;;;;7364277;19;19976;-80
2023/01/05 16:23:34;;;;;;;;;;;;;;;;;;7368251;19;20443;-80
2023/01/05 16:25:59;;;;;;;;;;;;;;;;;;7368099;19;20345;-79
2023/01/05 16:28:24;;;;;;;;;;;;;;;;;;7366197;19;20209;-80
2023/01/05 16:30:49;;;;;;;;;;;;;;;;;;7365316;19;20027;-80
2023/01/05 16:33:14;;;;;;;;;;;;;;;;;;7359728;19;20419;-78
2023/01/05 16:35:39;;;;;;;;;;;;;;;;;;7354273;19;19982;-79
2023/01/05 16:38:04;;;;;;;;;;;;;;;;;;7367149;19;20625;-80
2023/01/05 16:40:33;;;;;;;;;;;;;;;;;;7361015;19;19977;-79
2023/01/05 16:42:58;;;;;;;;;;;;;;;;;;7366974;19;19999;-80
2023/01/05 16:45:23;;;;;;;;;;;;;;;;;;7364676;19;19983;-80
2023/01/05 16:47:49;;;;;;;;;;;;;;;;;;7365760;19;19935;-80
2023/01/05 16:50:14;;;;;;;;;;;;;;;;;;7360988;19;19919;-78
2023/01/05 16:52:39;;;;;;;;;;;;;;;;;;7361534;19;20110;-80
2023/01/05 16:55:04;;;;;;;;;;;;;;;;;;7360713;19;19919;-79
2023/01/05 16:57:29;;;;;;;;;;;;;;;;;;7357786;19;19915;-80
2023/01/05 16:59:55;;;;;;;;;;;;;;;;;;7362748;19;19923;-78
2023/01/05 17:02:20;;;;;;;;;;;;;;;;;;7348674;19;20003;-76
2023/01/05 17:04:45;;;;;;;;;;;;;;;;;;7352391;19;19938;-76
2023/01/05 17:07:10;;;;;;;;;;;;;;;;;;7354418;19;19915;-75